createdAt,value
2022-11-02T00:01:16.269Z,68.70
2022-11-02T00:03:44.496Z,68.80
2022-11-02T00:06:12.651Z,68.80
2022-11-02T00:08:40.818Z,68.80
2022-11-02T00:11:10.384Z,68.80
2022-11-02T00:13:38.770Z,68.80
2022-11-02T00:16:11.931Z,68.90
2022-11-02T00:18:40.531Z,68.90
2022-11-02T00:21:08.673Z,68.90
2022-11-02T00:23:36.793Z,68.90
2022-11-02T00:26:05.083Z,68.80
2022-11-02T00:28:34.652Z,68.80
2022-11-02T00:31:03.136Z,68.90
2022-11-02T00:33:31.712Z,68.80
2022-11-02T00:35:59.914Z,68.90
2022-11-02T00:38:28.005Z,68.90
2022-11-02T00:40:56.071Z,68.90
2022-11-02T00:43:24.246Z,68.90
2022-11-02T00:45:53.726Z,68.90
2022-11-02T00:48:23.582Z,68.90
2022-11-02T00:50:51.782Z,68.90
2022-11-02T00:53:22.001Z,68.90
2022-11-02T00:55:54.041Z,68.90
2022-11-02T00:58:22.557Z,68.90
2022-11-02T01:00:53.439Z,68.90
2022-11-02T01:03:21.522Z,68.90
2022-11-02T01:05:50.113Z,68.90
2022-11-02T01:08:18.313Z,68.90
2022-11-02T01:10:48.284Z,68.90
2022-11-02T01:13:18.277Z,68.90
2022-11-02T01:15:46.384Z,68.90
2022-11-02T01:18:15.859Z,68.90
2022-11-02T01:20:44.160Z,68.90
2022-11-02T01:23:13.458Z,68.90
2022-11-02T01:25:46.884Z,68.90
2022-11-02T01:28:15.053Z,68.90
2022-11-02T01:30:43.204Z,68.80
2022-11-02T01:33:12.866Z,68.90
2022-11-02T01:35:43.092Z,68.80
2022-11-02T01:38:11.208Z,68.90
2022-11-02T01:40:40.153Z,68.90
2022-11-02T01:43:25.673Z,68.90
2022-11-02T01:45:56.957Z,68.90
2022-11-02T01:48:30.132Z,68.90
2022-11-02T01:51:02.809Z,68.90
2022-11-02T01:53:32.478Z,68.90
2022-11-02T01:56:02.127Z,68.90
2022-11-02T01:58:30.763Z,68.80
2022-11-02T02:00:58.894Z,68.80
2022-11-02T02:03:28.022Z,68.80
2022-11-02T02:06:02.837Z,68.90
2022-11-02T02:08:32.243Z,68.80
2022-11-02T02:11:00.775Z,68.80
2022-11-02T02:13:30.313Z,68.80
2022-11-02T02:16:12.494Z,68.80
2022-11-02T02:18:46.160Z,68.80
2022-11-02T02:21:27.704Z,68.80
2022-11-02T02:24:21.937Z,68.80
2022-11-02T02:27:13.449Z,68.80
2022-11-02T02:29:53.473Z,68.80
2022-11-02T02:32:29.686Z,68.80
2022-11-02T02:38:04.166Z,68.80
2022-11-02T02:40:37.349Z,68.80
2022-11-02T02:43:09.688Z,68.80
2022-11-02T02:45:44.594Z,68.80
2022-11-02T02:48:16.604Z,68.80
2022-11-02T02:50:49.706Z,68.80
2022-11-02T02:53:22.837Z,68.80
2022-11-02T02:55:52.802Z,68.80
2022-11-02T02:58:23.873Z,68.80
2022-11-02T03:00:54.343Z,68.80
2022-11-02T03:03:26.387Z,68.80
2022-11-02T03:06:06.000Z,68.80
2022-11-02T03:08:39.594Z,68.80
2022-11-02T03:11:15.064Z,68.70
2022-11-02T03:13:54.889Z,68.80
2022-11-02T03:16:38.576Z,68.70
2022-11-02T03:19:19.077Z,68.70
2022-11-02T03:21:54.599Z,68.70
2022-11-02T03:24:30.861Z,68.70
2022-11-02T03:27:09.864Z,68.70
2022-11-02T03:29:42.016Z,68.70
2022-11-02T03:32:21.337Z,68.60
2022-11-02T03:34:53.753Z,68.70
2022-11-02T03:37:26.771Z,68.60
2022-11-02T03:39:59.048Z,68.60
2022-11-02T03:42:29.240Z,68.60
2022-11-02T03:45:02.170Z,68.60
2022-11-02T03:47:34.819Z,68.60
2022-11-02T03:50:08.351Z,68.60
2022-11-02T03:52:40.582Z,68.60
2022-11-02T03:55:13.436Z,68.50
2022-11-02T03:57:44.632Z,68.50
2022-11-02T04:00:16.369Z,68.50
2022-11-02T04:02:56.154Z,68.50
2022-11-02T04:05:30.136Z,68.50
2022-11-02T04:08:18.048Z,68.50
2022-11-02T04:11:00.173Z,68.50
2022-11-02T04:13:45.849Z,68.50
2022-11-02T04:16:14.077Z,68.50
2022-11-02T04:19:02.301Z,68.50
2022-11-02T04:21:31.740Z,68.50
2022-11-02T04:24:18.780Z,68.50
2022-11-02T04:26:47.564Z,68.50
2022-11-02T04:29:16.228Z,68.50
2022-11-02T04:31:45.172Z,68.40
2022-11-02T04:34:15.907Z,68.40
2022-11-02T04:36:44.558Z,68.40
2022-11-02T04:39:12.284Z,68.40
2022-11-02T04:41:43.327Z,68.40
2022-11-02T04:44:20.802Z,68.40
2022-11-02T04:46:58.033Z,68.40
2022-11-02T04:49:30.237Z,68.40
2022-11-02T04:51:58.434Z,68.40
2022-11-02T04:54:27.614Z,68.40
2022-11-02T04:56:59.656Z,68.30
2022-11-02T04:59:29.764Z,68.30
2022-11-02T05:01:58.900Z,68.30
2022-11-02T05:04:29.022Z,68.30
2022-11-02T05:07:01.379Z,68.30
2022-11-02T05:09:32.008Z,68.30
2022-11-02T05:12:01.773Z,68.30
2022-11-02T05:14:29.893Z,68.30
2022-11-02T05:16:59.401Z,68.30
2022-11-02T05:19:29.356Z,68.30
2022-11-02T05:21:57.505Z,68.20
2022-11-02T05:24:26.628Z,68.20
2022-11-02T05:26:54.770Z,68.20
2022-11-02T05:29:25.882Z,68.10
2022-11-02T05:31:54.533Z,68.20
2022-11-02T05:34:23.070Z,68.20
2022-11-02T05:36:52.749Z,68.20
2022-11-02T05:39:23.407Z,68.30
2022-11-02T05:41:51.907Z,68.20
2022-11-02T05:44:20.300Z,68.30
2022-11-02T05:46:48.661Z,68.40
2022-11-02T05:49:17.056Z,68.40
2022-11-02T05:51:45.490Z,68.40
2022-11-02T05:54:15.276Z,68.40
2022-11-02T05:56:43.475Z,68.50
2022-11-02T05:59:11.601Z,68.50
2022-11-02T06:01:40.093Z,68.50
2022-11-02T06:04:08.432Z,68.50
2022-11-02T06:06:36.565Z,68.50
2022-11-02T06:09:07.356Z,68.50
2022-11-02T06:11:37.323Z,68.60
2022-11-02T06:14:05.864Z,68.50
2022-11-02T06:16:33.996Z,68.40
2022-11-02T06:19:02.146Z,68.60
2022-11-02T06:21:30.334Z,68.70
2022-11-02T06:23:59.346Z,68.50
2022-11-02T06:26:27.555Z,68.70
2022-11-02T06:28:57.228Z,68.70
2022-11-02T06:31:25.504Z,68.80
2022-11-02T06:33:53.672Z,68.80
2022-11-02T06:36:21.907Z,69.10
2022-11-02T06:38:51.167Z,69.20
2022-11-02T06:41:19.259Z,69.30
2022-11-02T06:43:47.334Z,69.20
2022-11-02T06:46:16.808Z,69.20
2022-11-02T06:48:47.665Z,69.40
2022-11-02T06:51:16.099Z,69.30
2022-11-02T06:53:44.427Z,69.20
2022-11-02T06:56:13.356Z,69.10
2022-11-02T06:58:41.444Z,69.10
2022-11-02T07:01:10.076Z,68.50
2022-11-02T07:03:39.713Z,68.50
2022-11-02T07:06:13.668Z,68.50
2022-11-02T07:08:42.824Z,68.60
2022-11-02T07:11:15.156Z,68.50
2022-11-02T07:13:43.783Z,68.70
2022-11-02T07:16:11.931Z,68.20
2022-11-02T07:18:41.815Z,68.10
2022-11-02T07:21:12.252Z,68.50
2022-11-02T07:23:40.404Z,68.20
2022-11-02T07:26:08.815Z,68.60
2022-11-02T07:28:38.449Z,68.70
2022-11-02T07:31:06.878Z,68.60
2022-11-02T07:33:35.334Z,68.10
2022-11-02T07:36:06.222Z,67.90
2022-11-02T07:38:35.046Z,68.60
2022-11-02T07:41:07.414Z,68.80
2022-11-02T07:43:38.744Z,68.90
2022-11-02T07:46:37.377Z,69.00
2022-11-02T07:49:06.193Z,69.00
2022-11-02T07:51:35.666Z,69.10
2022-11-02T07:54:03.765Z,69.40
2022-11-02T07:56:31.834Z,69.30
2022-11-02T07:58:59.886Z,69.40
2022-11-02T08:01:28.036Z,69.40
2022-11-02T08:03:56.907Z,69.30
2022-11-02T08:06:24.963Z,69.40
2022-11-02T08:08:54.431Z,69.60
2022-11-02T08:11:23.055Z,69.70
2022-11-02T08:13:51.181Z,69.40
2022-11-02T08:16:20.013Z,69.00
2022-11-02T08:18:48.113Z,69.10
2022-11-02T08:21:16.217Z,68.90
2022-11-02T08:23:44.289Z,69.20
2022-11-02T08:26:13.903Z,69.10
2022-11-02T08:28:42.145Z,69.00
2022-11-02T08:31:15.226Z,68.90
2022-11-02T08:33:43.415Z,68.90
2022-11-02T08:36:12.403Z,68.70
2022-11-02T08:38:40.524Z,68.60
2022-11-02T08:41:08.663Z,68.50
2022-11-02T08:43:38.142Z,68.40
2022-11-02T08:46:14.814Z,68.10
2022-11-02T08:48:44.023Z,68.10
2022-11-02T08:51:12.134Z,68.00
2022-11-02T08:53:40.244Z,68.00
2022-11-02T08:56:08.774Z,68.00
2022-11-02T08:58:38.203Z,67.80
2022-11-02T09:01:06.280Z,67.80
2022-11-02T09:03:34.368Z,67.70
2022-11-02T09:06:03.565Z,67.70
2022-11-02T09:08:33.201Z,67.60
2022-11-02T09:11:04.910Z,67.50
2022-11-02T09:13:33.114Z,67.40
2022-11-02T09:16:02.775Z,67.40
2022-11-02T09:18:31.539Z,67.40
2022-11-02T09:21:02.910Z,67.40
2022-11-02T09:23:32.244Z,67.40
2022-11-02T09:26:00.831Z,67.30
2022-11-02T09:28:29.127Z,67.10
2022-11-02T09:30:57.218Z,67.20
2022-11-02T09:33:26.733Z,67.10
2022-11-02T09:35:54.857Z,66.90
2022-11-02T09:38:23.095Z,66.80
2022-11-02T09:41:00.980Z,67.00
2022-11-02T09:43:40.480Z,67.20
2022-11-02T09:46:12.124Z,67.30
2022-11-02T09:48:44.034Z,67.20
2022-11-02T09:51:15.585Z,67.30
2022-11-02T09:53:53.765Z,67.40
2022-11-02T09:56:22.196Z,67.50
2022-11-02T09:58:56.817Z,67.40
2022-11-02T10:01:39.227Z,67.50
2022-11-02T10:04:34.918Z,67.50
2022-11-02T10:07:10.947Z,67.60
2022-11-02T10:09:50.306Z,67.60
2022-11-02T10:12:25.182Z,67.70
2022-11-02T10:15:00.021Z,67.70
2022-11-02T10:17:31.078Z,67.70
2022-11-02T10:20:06.683Z,67.60
2022-11-02T10:22:38.402Z,67.50
2022-11-02T10:25:08.603Z,67.40
2022-11-02T10:27:39.744Z,67.70
2022-11-02T10:30:12.786Z,67.70
2022-11-02T10:38:21.795Z,67.80
2022-11-02T10:41:06.597Z,67.70
2022-11-02T10:43:51.829Z,67.60
2022-11-02T10:46:43.912Z,67.50
2022-11-02T10:49:19.163Z,67.50
2022-11-02T10:51:48.646Z,67.50
2022-11-02T10:54:20.648Z,67.60
2022-11-02T10:56:53.666Z,67.60
2022-11-02T10:59:23.921Z,67.60
2022-11-02T11:02:11.000Z,67.60
2022-11-02T11:04:39.153Z,67.60
2022-11-02T11:07:15.037Z,67.60
2022-11-02T11:09:49.765Z,67.50
2022-11-02T11:12:22.269Z,67.30
2022-11-02T11:20:36.509Z,66.90
2022-11-02T11:23:22.172Z,67.00
2022-11-02T11:26:01.377Z,67.00
2022-11-02T11:28:32.999Z,66.90
2022-11-02T11:31:10.569Z,67.00
2022-11-02T11:33:47.431Z,66.90
2022-11-02T11:38:58.788Z,66.90
2022-11-02T11:41:27.041Z,67.00
2022-11-02T11:43:55.632Z,67.10
2022-11-02T11:46:24.115Z,67.10
2022-11-02T11:48:54.625Z,67.00
2022-11-02T11:51:29.108Z,67.00
2022-11-02T11:54:19.096Z,67.10
2022-11-02T11:56:48.089Z,67.20
2022-11-02T11:59:31.593Z,67.40
2022-11-02T12:02:01.813Z,67.50
2022-11-02T12:04:32.611Z,67.60
2022-11-02T12:07:24.519Z,67.60
2022-11-02T12:10:03.433Z,67.60
2022-11-02T12:12:44.784Z,67.70
2022-11-02T12:15:28.081Z,67.70
2022-11-02T12:18:09.809Z,67.70
2022-11-02T12:20:54.332Z,67.60
2022-11-02T12:23:36.371Z,67.50
2022-11-02T12:26:17.809Z,67.50
2022-11-02T12:28:55.439Z,67.50
2022-11-02T12:31:34.307Z,67.40
2022-11-02T12:34:20.826Z,67.20
2022-11-02T12:40:03.306Z,67.40
2022-11-02T12:42:39.226Z,67.40
2022-11-02T12:45:22.890Z,67.40
2022-11-02T12:47:58.185Z,67.40
2022-11-02T12:50:45.706Z,67.40
2022-11-02T12:53:39.866Z,67.40
2022-11-02T12:56:13.058Z,67.50
2022-11-02T12:58:43.091Z,67.50
2022-11-02T13:01:18.452Z,67.50
2022-11-02T13:03:52.879Z,67.50
2022-11-02T13:06:27.622Z,67.50
2022-11-02T13:09:00.106Z,67.60
2022-11-02T13:11:33.394Z,67.50
2022-11-02T13:14:05.973Z,67.40
2022-11-02T13:16:41.806Z,67.30
2022-11-02T13:19:16.794Z,67.30
2022-11-02T13:21:49.569Z,67.50
2022-11-02T13:24:23.004Z,67.50
2022-11-02T13:27:02.263Z,67.30
2022-11-02T13:29:47.661Z,67.30
2022-11-02T13:32:23.418Z,67.30
2022-11-02T13:34:53.644Z,67.20
2022-11-02T13:37:26.235Z,67.20
2022-11-02T13:39:57.649Z,67.20
2022-11-02T13:42:56.001Z,67.30
2022-11-02T13:45:56.347Z,67.50
2022-11-02T13:48:41.579Z,67.60
2022-11-02T13:51:20.658Z,67.70
2022-11-02T13:53:59.535Z,67.70
2022-11-02T13:56:30.079Z,67.80
2022-11-02T13:59:01.664Z,67.90
2022-11-02T14:01:33.212Z,68.00
2022-11-02T14:04:07.592Z,68.00
2022-11-02T14:06:47.211Z,68.10
2022-11-02T14:09:31.834Z,68.30
2022-11-02T14:12:30.596Z,68.20
2022-11-02T14:15:42.364Z,68.20
2022-11-02T14:18:16.160Z,68.20
2022-11-02T14:20:47.790Z,68.20
2022-11-02T14:23:38.855Z,67.80
2022-11-02T14:26:53.526Z,67.50
2022-11-02T14:29:52.224Z,67.70
2022-11-02T14:32:30.954Z,67.90
2022-11-02T14:35:15.658Z,68.00
2022-11-02T14:38:07.915Z,68.10
2022-11-02T14:40:47.809Z,68.20
2022-11-02T14:43:43.075Z,68.30
2022-11-02T14:46:23.172Z,68.30
2022-11-02T14:48:53.913Z,68.40
2022-11-02T14:51:24.900Z,68.40
2022-11-02T14:53:59.214Z,68.50
2022-11-02T14:56:48.977Z,68.50
2022-11-02T14:59:21.047Z,68.50
2022-11-02T15:01:55.446Z,68.50
2022-11-02T15:04:25.889Z,68.50
2022-11-02T15:06:56.924Z,68.50
2022-11-02T15:09:55.704Z,68.60
2022-11-02T15:12:37.515Z,68.60
2022-11-02T15:15:39.789Z,68.50
2022-11-02T15:18:24.755Z,68.40
2022-11-02T15:21:39.259Z,68.50
2022-11-02T15:24:18.601Z,68.40
2022-11-02T15:26:53.614Z,68.40
2022-11-02T15:29:37.118Z,68.30
2022-11-02T15:32:09.441Z,68.10
2022-11-02T15:34:42.883Z,68.00
2022-11-02T15:37:17.854Z,68.00
2022-11-02T15:39:49.945Z,67.90
2022-11-02T15:42:30.673Z,67.80
2022-11-02T15:45:48.521Z,67.80
2022-11-02T15:48:30.145Z,67.80
2022-11-02T15:51:06.365Z,67.80
2022-11-02T15:53:56.039Z,67.80
2022-11-02T15:56:52.473Z,67.80
2022-11-02T15:59:51.116Z,67.80
2022-11-02T16:02:24.589Z,67.80
2022-11-02T16:04:54.532Z,67.80
2022-11-02T16:07:29.168Z,67.90
2022-11-02T16:10:20.814Z,67.80
2022-11-02T16:12:56.662Z,67.80
2022-11-02T16:15:26.579Z,67.70
2022-11-02T16:17:55.224Z,67.70
2022-11-02T16:20:26.015Z,67.60
2022-11-02T16:22:57.249Z,67.60
2022-11-02T16:25:39.709Z,67.70
2022-11-02T16:28:21.919Z,67.70
2022-11-02T16:31:13.582Z,67.70
2022-11-02T16:33:46.986Z,67.70
2022-11-02T16:36:17.729Z,67.80
2022-11-02T16:38:54.997Z,67.80
2022-11-02T16:41:25.516Z,67.80
2022-11-02T16:43:54.392Z,67.90
2022-11-02T16:46:32.712Z,67.90
2022-11-02T16:49:15.166Z,67.90
2022-11-02T16:51:49.815Z,67.80
2022-11-02T16:54:24.855Z,67.70
2022-11-02T16:56:54.136Z,67.70
2022-11-02T16:59:23.763Z,67.60
2022-11-02T17:02:00.001Z,67.50
2022-11-02T17:04:30.723Z,67.50
2022-11-02T17:07:09.369Z,67.50
2022-11-02T17:09:37.830Z,67.50
2022-11-02T17:12:10.438Z,67.50
2022-11-02T17:14:43.067Z,67.50
2022-11-02T17:17:35.909Z,67.50
2022-11-02T17:20:19.107Z,67.50
2022-11-02T17:22:58.869Z,67.50
2022-11-02T17:25:28.731Z,67.50
2022-11-02T17:27:58.083Z,67.50
2022-11-02T17:30:45.226Z,67.50
2022-11-02T17:33:29.679Z,67.50
2022-11-02T17:36:04.202Z,67.50
2022-11-02T17:38:32.505Z,67.50
2022-11-02T17:41:01.701Z,67.50
2022-11-02T17:43:28.795Z,67.50
2022-11-02T17:45:58.133Z,67.60
2022-11-02T17:48:28.919Z,67.60
2022-11-02T17:50:59.624Z,67.60
2022-11-02T17:53:28.187Z,67.50
2022-11-02T17:55:56.470Z,67.50
2022-11-02T17:58:24.552Z,67.50
2022-11-02T18:00:54.711Z,67.40
2022-11-02T18:03:28.381Z,67.50
2022-11-02T18:06:00.871Z,67.40
2022-11-02T18:08:29.298Z,67.40
2022-11-02T18:10:57.489Z,67.40
2022-11-02T18:13:26.157Z,67.50
2022-11-02T18:15:54.279Z,67.50
2022-11-02T18:18:22.392Z,67.40
2022-11-02T18:20:50.493Z,67.50
2022-11-02T18:23:20.432Z,67.50
2022-11-02T18:25:48.732Z,67.60
2022-11-02T18:28:16.988Z,67.50
2022-11-02T18:30:45.290Z,67.60
2022-11-02T18:33:14.431Z,67.60
2022-11-02T18:35:44.205Z,67.60
2022-11-02T18:38:12.984Z,67.70
2022-11-02T18:40:42.561Z,67.70
2022-11-02T18:43:10.802Z,67.80
2022-11-02T18:45:38.942Z,68.10
2022-11-02T18:48:10.256Z,68.20
2022-11-02T18:50:38.348Z,68.30
2022-11-02T18:53:06.470Z,68.20
2022-11-02T18:55:34.594Z,68.10
2022-11-02T18:58:04.531Z,68.00
2022-11-02T19:00:32.890Z,68.00
2022-11-02T19:03:01.025Z,68.00
2022-11-02T19:05:46.791Z,68.00
2022-11-02T19:08:46.999Z,68.00
2022-11-02T19:11:15.301Z,68.00
2022-11-02T19:13:44.771Z,68.00
2022-11-02T19:16:13.067Z,68.00
2022-11-02T19:18:41.213Z,68.10
2022-11-02T19:21:09.289Z,68.10
2022-11-02T19:23:37.387Z,68.20
2022-11-02T19:26:05.806Z,68.20
2022-11-02T19:28:34.386Z,68.20
2022-11-02T19:31:08.224Z,69.20
2022-11-02T19:33:38.963Z,71.00
2022-11-02T19:36:07.530Z,70.10
2022-11-02T19:38:37.571Z,70.20
2022-11-02T19:41:10.455Z,70.50
2022-11-02T19:43:39.812Z,70.30
2022-11-02T19:46:11.997Z,70.60
2022-11-02T19:48:41.038Z,70.60
2022-11-02T19:51:13.337Z,70.70
2022-11-02T19:53:46.110Z,70.60
2022-11-02T19:56:18.980Z,70.70
2022-11-02T19:58:48.504Z,70.50
2022-11-02T20:01:20.152Z,70.40
2022-11-02T20:03:52.152Z,70.40
2022-11-02T20:06:21.832Z,70.40
2022-11-02T20:08:51.507Z,70.30
2022-11-02T20:11:20.307Z,70.70
2022-11-02T20:13:49.509Z,70.60
2022-11-02T20:16:21.029Z,70.40
2022-11-02T20:18:50.976Z,70.30
2022-11-02T20:21:21.619Z,70.20
2022-11-02T20:23:50.324Z,70.20
2022-11-02T20:26:21.265Z,70.10
2022-11-02T20:28:50.008Z,70.10
2022-11-02T20:31:21.431Z,71.80
2022-11-02T20:33:50.633Z,72.90
2022-11-02T20:36:19.351Z,73.40
2022-11-02T20:38:49.145Z,73.70
2022-11-02T20:41:19.043Z,73.70
2022-11-02T20:43:48.812Z,73.50
2022-11-02T20:49:22.062Z,73.70
2022-11-02T20:51:58.102Z,73.70
2022-11-02T20:54:29.509Z,73.40
2022-11-02T20:56:57.953Z,73.10
2022-11-02T20:59:26.440Z,73.10
2022-11-02T21:01:56.067Z,72.80
2022-11-02T21:04:24.292Z,72.50
2022-11-02T21:06:52.641Z,72.40
2022-11-02T21:09:21.025Z,72.30
2022-11-02T21:12:06.994Z,72.20
2022-11-02T21:14:35.083Z,72.10
2022-11-02T21:17:06.701Z,72.10
2022-11-02T21:19:34.948Z,72.00
2022-11-02T21:22:03.068Z,72.00
2022-11-02T21:24:31.311Z,71.90
2022-11-02T21:26:59.674Z,71.90
2022-11-02T21:29:28.010Z,71.90
2022-11-02T21:31:56.269Z,71.80
2022-11-02T21:34:26.141Z,71.80
2022-11-02T21:36:54.328Z,71.80
2022-11-02T21:39:22.473Z,71.80
2022-11-02T21:41:50.594Z,71.70
2022-11-02T21:44:18.716Z,71.70
2022-11-02T21:46:46.771Z,71.70
2022-11-02T21:49:14.919Z,71.70
2022-11-02T21:51:44.446Z,71.60
2022-11-02T21:54:12.671Z,71.60
2022-11-02T21:56:40.759Z,71.60
2022-11-02T21:59:09.530Z,71.60
2022-11-02T22:01:47.180Z,71.60
2022-11-02T22:04:17.311Z,71.60
2022-11-02T22:06:46.884Z,71.60
2022-11-02T22:09:15.539Z,71.60
2022-11-02T22:11:44.971Z,71.50
2022-11-02T22:14:12.602Z,71.60
2022-11-02T22:16:44.597Z,71.60
2022-11-02T22:19:14.394Z,71.60
2022-11-02T22:21:44.365Z,71.60
2022-11-02T22:24:13.990Z,71.50
2022-11-02T22:26:42.547Z,71.60
2022-11-02T22:29:10.821Z,71.50
2022-11-02T22:31:41.627Z,71.50
2022-11-02T22:34:11.458Z,71.40
2022-11-02T22:36:41.535Z,71.40
2022-11-02T22:39:11.900Z,71.50
2022-11-02T22:41:42.915Z,71.50
2022-11-02T22:44:12.549Z,71.50
2022-11-02T22:46:41.864Z,71.50
2022-11-02T22:49:11.896Z,71.50
2022-11-02T22:51:42.037Z,71.50
2022-11-02T22:54:13.644Z,71.40
2022-11-02T22:56:43.455Z,71.40
2022-11-02T22:59:11.865Z,71.40
2022-11-02T23:01:40.749Z,71.40
2022-11-02T23:04:10.909Z,71.50
2022-11-02T23:06:39.143Z,71.40
2022-11-02T23:09:07.492Z,71.50
2022-11-02T23:11:36.283Z,71.50
2022-11-02T23:14:08.004Z,71.50
2022-11-02T23:16:38.197Z,71.50
2022-11-02T23:19:25.151Z,71.50
2022-11-02T23:22:14.733Z,71.50
2022-11-02T23:25:01.821Z,71.50
2022-11-02T23:27:30.161Z,71.50
2022-11-02T23:30:16.854Z,71.40
2022-11-02T23:32:45.043Z,71.50
2022-11-02T23:35:30.552Z,71.40
2022-11-02T23:38:07.605Z,71.40
2022-11-02T23:40:35.736Z,71.40
2022-11-02T23:43:05.013Z,71.40
2022-11-02T23:45:34.678Z,71.40
2022-11-02T23:48:06.957Z,71.40
2022-11-02T23:50:53.434Z,71.40
2022-11-02T23:53:40.161Z,71.30
2022-11-02T23:56:31.668Z,71.30
2022-11-02T23:59:07.285Z,71.30
